Terminal Aerodrome Forecast
Issued by NWS

Home | Current Version | Previous Version | Text Only | Print | Product List | Glossary On
Versions: 1 2 3 4 5 6 7 8 9 10 11 12 13 14 15 16 17 18 19 20 21 22 23 24 25 26 27 28 29 30 31 32 33 34
000
FTUS44 KEWX 272323
TAFSSF
TAF
KSSF 272323Z 2800/2824 VRB05KT P6SM SCT050 BKN150
     FM280700 14005KT P6SM BKN012
     FM280800 14003KT 4SM BR BKN008
     FM281300 19006KT P6SM BKN015
     FM281700 17008KT P6SM BKN040=

USA.gov is the U.S. government's official web portal to all federal, state and local government web resources and services.